sensor_id;sensor_type;location;lat;lon;timestamp;temperature;humidity
10316;DHT22;5203;48.976;8.306;2022-12-10T00:00:16;2.80;99.90
10316;DHT22;5203;48.976;8.306;2022-12-10T00:02:41;2.80;99.90
10316;DHT22;5203;48.976;8.306;2022-12-10T00:05:07;2.80;99.90
10316;DHT22;5203;48.976;8.306;2022-12-10T00:07:33;2.80;99.90
10316;DHT22;5203;48.976;8.306;2022-12-10T00:09:59;2.80;99.90
10316;DHT22;5203;48.976;8.306;2022-12-10T00:12:24;2.80;99.90
10316;DHT22;5203;48.976;8.306;2022-12-10T00:14:50;2.80;99.90
10316;DHT22;5203;48.976;8.306;2022-12-10T00:17:15;2.70;99.90
10316;DHT22;5203;48.976;8.306;2022-12-10T00:19:41;2.80;99.90
10316;DHT22;5203;48.976;8.306;2022-12-10T00:22:07;2.70;99.90
10316;DHT22;5203;48.976;8.306;2022-12-10T00:24:32;2.70;99.90
10316;DHT22;5203;48.976;8.306;2022-12-10T00:26:58;2.70;99.90
10316;DHT22;5203;48.976;8.306;2022-12-10T00:29:24;2.70;99.90
10316;DHT22;5203;48.976;8.306;2022-12-10T00:31:49;2.70;99.90
10316;DHT22;5203;48.976;8.306;2022-12-10T00:34:15;2.80;99.90
10316;DHT22;5203;48.976;8.306;2022-12-10T00:36:43;2.80;99.90
10316;DHT22;5203;48.976;8.306;2022-12-10T00:39:12;2.70;99.90
10316;DHT22;5203;48.976;8.306;2022-12-10T00:41:37;2.80;99.90
10316;DHT22;5203;48.976;8.306;2022-12-10T00:44:03;2.80;99.90
10316;DHT22;5203;48.976;8.306;2022-12-10T00:46:29;2.90;99.90
10316;DHT22;5203;48.976;8.306;2022-12-10T00:48:55;2.90;99.90
10316;DHT22;5203;48.976;8.306;2022-12-10T00:51:25;2.90;99.90
10316;DHT22;5203;48.976;8.306;2022-12-10T00:53:53;2.90;99.90
10316;DHT22;5203;48.976;8.306;2022-12-10T00:56:21;3.00;99.90
10316;DHT22;5203;48.976;8.306;2022-12-10T00:58:47;2.90;99.90
10316;DHT22;5203;48.976;8.306;2022-12-10T01:03:42;2.90;99.90
10316;DHT22;5203;48.976;8.306;2022-12-10T01:08:39;2.90;99.90
10316;DHT22;5203;48.976;8.306;2022-12-10T01:11:06;3.00;99.90
10316;DHT22;5203;48.976;8.306;2022-12-10T01:13:31;2.90;99.90
10316;DHT22;5203;48.976;8.306;2022-12-10T01:16:00;2.90;99.90
10316;DHT22;5203;48.976;8.306;2022-12-10T01:18:26;2.90;99.90
10316;DHT22;5203;48.976;8.306;2022-12-10T01:20:52;2.90;99.90
10316;DHT22;5203;48.976;8.306;2022-12-10T01:23:17;2.90;99.90
10316;DHT22;5203;48.976;8.306;2022-12-10T01:25:43;2.90;99.90
10316;DHT22;5203;48.976;8.306;2022-12-10T01:28:08;2.90;99.90
10316;DHT22;5203;48.976;8.306;2022-12-10T01:30:34;3.00;99.90
10316;DHT22;5203;48.976;8.306;2022-12-10T01:32:59;3.00;99.90
10316;DHT22;5203;48.976;8.306;2022-12-10T01:35:25;3.00;99.90
10316;DHT22;5203;48.976;8.306;2022-12-10T01:37:51;3.00;99.60
10316;DHT22;5203;48.976;8.306;2022-12-10T01:40:16;3.00;99.70
10316;DHT22;5203;48.976;8.306;2022-12-10T01:42:42;3.00;99.80
10316;DHT22;5203;48.976;8.306;2022-12-10T01:45:11;3.00;99.70
10316;DHT22;5203;48.976;8.306;2022-12-10T01:47:37;3.00;99.50
10316;DHT22;5203;48.976;8.306;2022-12-10T01:50:05;3.00;99.60
10316;DHT22;5203;48.976;8.306;2022-12-10T01:52:31;3.00;99.50
10316;DHT22;5203;48.976;8.306;2022-12-10T01:54:57;3.00;99.90
10316;DHT22;5203;48.976;8.306;2022-12-10T01:57:26;3.00;99.90
10316;DHT22;5203;48.976;8.306;2022-12-10T01:59:58;3.00;99.90
10316;DHT22;5203;48.976;8.306;2022-12-10T02:02:40;3.10;99.80
10316;DHT22;5203;48.976;8.306;2022-12-10T02:05:20;3.00;99.90
10316;DHT22;5203;48.976;8.306;2022-12-10T02:08:08;3.00;99.70
10316;DHT22;5203;48.976;8.306;2022-12-10T02:16:12;2.90;99.90
10316;DHT22;5203;48.976;8.306;2022-12-10T02:18:48;2.90;99.80
10316;DHT22;5203;48.976;8.306;2022-12-10T02:21:21;2.80;99.80
10316;DHT22;5203;48.976;8.306;2022-12-10T02:24:04;2.80;99.90
10316;DHT22;5203;48.976;8.306;2022-12-10T02:26:48;2.70;99.90
10316;DHT22;5203;48.976;8.306;2022-12-10T02:29:19;2.70;99.90
10316;DHT22;5203;48.976;8.306;2022-12-10T02:31:57;2.60;99.90
10316;DHT22;5203;48.976;8.306;2022-12-10T02:34:28;2.60;99.90
10316;DHT22;5203;48.976;8.306;2022-12-10T02:36:57;2.50;99.90
10316;DHT22;5203;48.976;8.306;2022-12-10T02:39:29;2.50;99.90
10316;DHT22;5203;48.976;8.306;2022-12-10T02:41:58;2.40;99.90
10316;DHT22;5203;48.976;8.306;2022-12-10T02:44:26;2.40;99.90
10316;DHT22;5203;48.976;8.306;2022-12-10T02:46:55;2.40;99.90
10316;DHT22;5203;48.976;8.306;2022-12-10T02:49:21;2.30;99.90
10316;DHT22;5203;48.976;8.306;2022-12-10T02:51:49;2.40;99.90
10316;DHT22;5203;48.976;8.306;2022-12-10T02:54:52;2.30;99.90
10316;DHT22;5203;48.976;8.306;2022-12-10T03:00:21;2.30;99.90
10316;DHT22;5203;48.976;8.306;2022-12-10T03:08:24;2.50;99.90
10316;DHT22;5203;48.976;8.306;2022-12-10T03:11:08;2.50;99.90
10316;DHT22;5203;48.976;8.306;2022-12-10T03:13:40;2.40;99.90
10316;DHT22;5203;48.976;8.306;2022-12-10T03:16:08;2.50;99.90
10316;DHT22;5203;48.976;8.306;2022-12-10T03:18:35;2.50;99.90
10316;DHT22;5203;48.976;8.306;2022-12-10T03:21:05;2.50;99.90
10316;DHT22;5203;48.976;8.306;2022-12-10T03:23:35;2.50;99.90
10316;DHT22;5203;48.976;8.306;2022-12-10T03:26:02;2.50;99.90
10316;DHT22;5203;48.976;8.306;2022-12-10T03:28:34;2.50;99.90
10316;DHT22;5203;48.976;8.306;2022-12-10T03:31:02;2.60;99.90
10316;DHT22;5203;48.976;8.306;2022-12-10T03:33:28;2.50;99.90
10316;DHT22;5203;48.976;8.306;2022-12-10T03:35:55;2.60;99.90
10316;DHT22;5203;48.976;8.306;2022-12-10T03:38:21;2.60;99.90
10316;DHT22;5203;48.976;8.306;2022-12-10T03:40:47;2.60;99.90
10316;DHT22;5203;48.976;8.306;2022-12-10T03:43:13;2.70;99.90
10316;DHT22;5203;48.976;8.306;2022-12-10T03:45:40;2.70;99.90
10316;DHT22;5203;48.976;8.306;2022-12-10T03:48:06;2.70;99.90
10316;DHT22;5203;48.976;8.306;2022-12-10T03:50:31;2.70;99.90
10316;DHT22;5203;48.976;8.306;2022-12-10T03:52:57;2.60;99.90
10316;DHT22;5203;48.976;8.306;2022-12-10T03:55:22;2.60;99.90
10316;DHT22;5203;48.976;8.306;2022-12-10T03:57:48;2.70;99.90
10316;DHT22;5203;48.976;8.306;2022-12-10T04:00:14;2.60;99.90
10316;DHT22;5203;48.976;8.306;2022-12-10T04:02:41;2.60;99.90
10316;DHT22;5203;48.976;8.306;2022-12-10T04:05:07;2.70;99.90
10316;DHT22;5203;48.976;8.306;2022-12-10T04:07:33;2.60;99.90
10316;DHT22;5203;48.976;8.306;2022-12-10T04:09:59;2.60;99.90
10316;DHT22;5203;48.976;8.306;2022-12-10T04:12:24;2.70;99.90
10316;DHT22;5203;48.976;8.306;2022-12-10T04:14:50;2.70;99.90
10316;DHT22;5203;48.976;8.306;2022-12-10T04:17:34;2.70;99.90
10316;DHT22;5203;48.976;8.306;2022-12-10T04:20:00;2.70;99.90
10316;DHT22;5203;48.976;8.306;2022-12-10T04:22:26;2.70;99.90
10316;DHT22;5203;48.976;8.306;2022-12-10T04:25:11;2.70;99.90
10316;DHT22;5203;48.976;8.306;2022-12-10T04:27:56;2.70;99.90
10316;DHT22;5203;48.976;8.306;2022-12-10T04:30:22;2.70;99.90
10316;DHT22;5203;48.976;8.306;2022-12-10T04:32:47;2.60;99.90
10316;DHT22;5203;48.976;8.306;2022-12-10T04:35:13;2.60;99.90
10316;DHT22;5203;48.976;8.306;2022-12-10T04:37:39;2.60;99.90
10316;DHT22;5203;48.976;8.306;2022-12-10T04:40:05;2.60;99.90
10316;DHT22;5203;48.976;8.306;2022-12-10T04:42:31;2.60;99.90
10316;DHT22;5203;48.976;8.306;2022-12-10T04:44:57;2.60;99.90
10316;DHT22;5203;48.976;8.306;2022-12-10T04:47:22;2.50;99.90
10316;DHT22;5203;48.976;8.306;2022-12-10T04:49:48;2.50;99.90
10316;DHT22;5203;48.976;8.306;2022-12-10T04:52:15;2.50;99.90
10316;DHT22;5203;48.976;8.306;2022-12-10T04:54:43;2.40;99.90
10316;DHT22;5203;48.976;8.306;2022-12-10T04:57:09;2.40;99.90
10316;DHT22;5203;48.976;8.306;2022-12-10T04:59:36;2.30;99.90
10316;DHT22;5203;48.976;8.306;2022-12-10T05:02:03;2.20;99.90
10316;DHT22;5203;48.976;8.306;2022-12-10T05:04:29;2.20;99.90
10316;DHT22;5203;48.976;8.306;2022-12-10T05:06:54;2.10;99.90
10316;DHT22;5203;48.976;8.306;2022-12-10T05:09:20;2.10;99.90
10316;DHT22;5203;48.976;8.306;2022-12-10T05:11:46;2.10;99.90
10316;DHT22;5203;48.976;8.306;2022-12-10T05:14:13;2.00;99.90
10316;DHT22;5203;48.976;8.306;2022-12-10T05:16:40;2.00;99.90
10316;DHT22;5203;48.976;8.306;2022-12-10T05:19:05;2.00;99.90
10316;DHT22;5203;48.976;8.306;2022-12-10T05:21:31;2.00;99.90
10316;DHT22;5203;48.976;8.306;2022-12-10T05:24:17;2.00;99.90
10316;DHT22;5203;48.976;8.306;2022-12-10T05:26:43;2.10;99.90
10316;DHT22;5203;48.976;8.306;2022-12-10T05:29:09;2.00;99.90
10316;DHT22;5203;48.976;8.306;2022-12-10T05:31:35;2.00;99.90
10316;DHT22;5203;48.976;8.306;2022-12-10T05:34:00;2.00;99.90
10316;DHT22;5203;48.976;8.306;2022-12-10T05:36:29;2.00;99.90
10316;DHT22;5203;48.976;8.306;2022-12-10T05:38:56;2.00;99.90
10316;DHT22;5203;48.976;8.306;2022-12-10T05:41:26;2.00;99.90
10316;DHT22;5203;48.976;8.306;2022-12-10T05:43:54;2.00;99.90
10316;DHT22;5203;48.976;8.306;2022-12-10T05:46:22;2.00;99.90
10316;DHT22;5203;48.976;8.306;2022-12-10T05:48:49;2.00;99.90
10316;DHT22;5203;48.976;8.306;2022-12-10T05:51:20;2.10;99.90
10316;DHT22;5203;48.976;8.306;2022-12-10T05:53:47;2.10;99.90
10316;DHT22;5203;48.976;8.306;2022-12-10T05:56:15;2.00;99.90
10316;DHT22;5203;48.976;8.306;2022-12-10T05:58:43;2.00;99.90
10316;DHT22;5203;48.976;8.306;2022-12-10T06:01:13;2.00;99.90
10316;DHT22;5203;48.976;8.306;2022-12-10T06:03:39;1.90;99.90
10316;DHT22;5203;48.976;8.306;2022-12-10T06:06:05;1.90;99.90
10316;DHT22;5203;48.976;8.306;2022-12-10T06:08:32;1.90;99.90
10316;DHT22;5203;48.976;8.306;2022-12-10T06:11:01;1.90;99.90
10316;DHT22;5203;48.976;8.306;2022-12-10T06:13:27;1.90;99.90
10316;DHT22;5203;48.976;8.306;2022-12-10T06:15:53;2.00;99.90
10316;DHT22;5203;48.976;8.306;2022-12-10T06:18:19;2.00;99.90
10316;DHT22;5203;48.976;8.306;2022-12-10T06:20:44;2.00;99.90
10316;DHT22;5203;48.976;8.306;2022-12-10T06:23:10;2.00;99.90
10316;DHT22;5203;48.976;8.306;2022-12-10T06:25:38;2.00;99.90
10316;DHT22;5203;48.976;8.306;2022-12-10T06:28:05;2.10;99.90
10316;DHT22;5203;48.976;8.306;2022-12-10T06:30:31;2.10;99.90
10316;DHT22;5203;48.976;8.306;2022-12-10T06:32:57;2.00;99.90
10316;DHT22;5203;48.976;8.306;2022-12-10T06:35:24;2.00;99.90
10316;DHT22;5203;48.976;8.306;2022-12-10T06:37:49;2.00;99.90
10316;DHT22;5203;48.976;8.306;2022-12-10T06:40:16;1.90;99.90
10316;DHT22;5203;48.976;8.306;2022-12-10T06:42:41;2.00;99.90
10316;DHT22;5203;48.976;8.306;2022-12-10T06:45:07;2.00;99.90
10316;DHT22;5203;48.976;8.306;2022-12-10T06:47:33;2.10;99.90
10316;DHT22;5203;48.976;8.306;2022-12-10T06:49:59;2.10;99.90
10316;DHT22;5203;48.976;8.306;2022-12-10T06:52:24;2.10;99.90
10316;DHT22;5203;48.976;8.306;2022-12-10T06:54:50;2.10;99.90
10316;DHT22;5203;48.976;8.306;2022-12-10T06:57:16;2.10;99.90
10316;DHT22;5203;48.976;8.306;2022-12-10T06:59:42;2.10;99.90
10316;DHT22;5203;48.976;8.306;2022-12-10T07:02:09;2.10;99.90
10316;DHT22;5203;48.976;8.306;2022-12-10T07:04:34;2.00;99.90
10316;DHT22;5203;48.976;8.306;2022-12-10T07:07:00;2.00;99.90
10316;DHT22;5203;48.976;8.306;2022-12-10T07:09:26;1.90;99.90
10316;DHT22;5203;48.976;8.306;2022-12-10T07:11:51;2.00;99.90
10316;DHT22;5203;48.976;8.306;2022-12-10T07:14:18;2.00;99.90
10316;DHT22;5203;48.976;8.306;2022-12-10T07:16:43;2.00;99.90
10316;DHT22;5203;48.976;8.306;2022-12-10T07:19:11;2.00;99.90
10316;DHT22;5203;48.976;8.306;2022-12-10T07:21:39;1.90;99.90
10316;DHT22;5203;48.976;8.306;2022-12-10T07:24:17;1.90;99.90
10316;DHT22;5203;48.976;8.306;2022-12-10T07:26:44;1.90;99.90
10316;DHT22;5203;48.976;8.306;2022-12-10T07:29:19;1.90;99.90
10316;DHT22;5203;48.976;8.306;2022-12-10T07:31:45;1.80;99.90
10316;DHT22;5203;48.976;8.306;2022-12-10T07:34:11;1.80;99.90
10316;DHT22;5203;48.976;8.306;2022-12-10T07:36:37;1.90;99.90
10316;DHT22;5203;48.976;8.306;2022-12-10T07:39:06;1.90;99.90
10316;DHT22;5203;48.976;8.306;2022-12-10T07:41:32;1.90;99.90
10316;DHT22;5203;48.976;8.306;2022-12-10T07:43:58;2.00;99.90
10316;DHT22;5203;48.976;8.306;2022-12-10T07:46:27;2.00;99.90
10316;DHT22;5203;48.976;8.306;2022-12-10T07:48:53;2.10;99.90
10316;DHT22;5203;48.976;8.306;2022-12-10T07:51:20;2.10;99.90
10316;DHT22;5203;48.976;8.306;2022-12-10T07:53:47;2.10;99.90
10316;DHT22;5203;48.976;8.306;2022-12-10T07:56:13;2.10;99.90
10316;DHT22;5203;48.976;8.306;2022-12-10T07:58:43;2.10;99.90
10316;DHT22;5203;48.976;8.306;2022-12-10T08:01:12;2.10;99.60
10316;DHT22;5203;48.976;8.306;2022-12-10T08:03:38;2.10;99.50
10316;DHT22;5203;48.976;8.306;2022-12-10T08:06:07;2.10;99.30
10316;DHT22;5203;48.976;8.306;2022-12-10T08:08:35;2.20;98.70
10316;DHT22;5203;48.976;8.306;2022-12-10T08:11:02;2.20;98.50
10316;DHT22;5203;48.976;8.306;2022-12-10T08:13:28;2.10;98.70
10316;DHT22;5203;48.976;8.306;2022-12-10T08:15:54;2.00;98.80
10316;DHT22;5203;48.976;8.306;2022-12-10T08:18:20;1.90;99.60
10316;DHT22;5203;48.976;8.306;2022-12-10T08:20:46;2.00;99.90
10316;DHT22;5203;48.976;8.306;2022-12-10T08:23:11;1.90;99.20
10316;DHT22;5203;48.976;8.306;2022-12-10T08:25:37;1.90;99.70
10316;DHT22;5203;48.976;8.306;2022-12-10T08:28:03;1.90;99.50
10316;DHT22;5203;48.976;8.306;2022-12-10T08:30:29;1.90;99.40
10316;DHT22;5203;48.976;8.306;2022-12-10T08:32:55;1.90;99.70
10316;DHT22;5203;48.976;8.306;2022-12-10T08:35:21;1.90;99.90
10316;DHT22;5203;48.976;8.306;2022-12-10T08:37:46;1.90;99.70
10316;DHT22;5203;48.976;8.306;2022-12-10T08:40:12;2.00;99.50
10316;DHT22;5203;48.976;8.306;2022-12-10T08:42:38;1.90;99.50
10316;DHT22;5203;48.976;8.306;2022-12-10T08:45:05;2.00;99.90
10316;DHT22;5203;48.976;8.306;2022-12-10T08:47:30;2.00;99.90
10316;DHT22;5203;48.976;8.306;2022-12-10T08:49:56;2.20;99.20
10316;DHT22;5203;48.976;8.306;2022-12-10T08:52:22;2.20;98.60
10316;DHT22;5203;48.976;8.306;2022-12-10T08:54:47;2.30;98.60
10316;DHT22;5203;48.976;8.306;2022-12-10T08:57:13;2.30;97.90
10316;DHT22;5203;48.976;8.306;2022-12-10T08:59:39;2.30;97.60
10316;DHT22;5203;48.976;8.306;2022-12-10T09:02:04;2.30;97.70
10316;DHT22;5203;48.976;8.306;2022-12-10T09:04:30;2.40;98.60
10316;DHT22;5203;48.976;8.306;2022-12-10T09:06:56;2.30;96.70
10316;DHT22;5203;48.976;8.306;2022-12-10T09:09:21;2.40;96.50
10316;DHT22;5203;48.976;8.306;2022-12-10T09:11:47;2.30;96.10
10316;DHT22;5203;48.976;8.306;2022-12-10T09:14:13;2.30;96.10
10316;DHT22;5203;48.976;8.306;2022-12-10T09:16:38;2.20;96.20
10316;DHT22;5203;48.976;8.306;2022-12-10T09:19:05;2.20;95.60
10316;DHT22;5203;48.976;8.306;2022-12-10T09:21:31;2.20;96.60
10316;DHT22;5203;48.976;8.306;2022-12-10T09:23:57;2.30;95.80
10316;DHT22;5203;48.976;8.306;2022-12-10T09:26:23;2.30;96.10
10316;DHT22;5203;48.976;8.306;2022-12-10T09:28:49;2.30;95.70
10316;DHT22;5203;48.976;8.306;2022-12-10T09:31:17;2.20;95.80
10316;DHT22;5203;48.976;8.306;2022-12-10T09:33:43;2.20;96.70
10316;DHT22;5203;48.976;8.306;2022-12-10T09:36:10;2.30;96.00
10316;DHT22;5203;48.976;8.306;2022-12-10T09:38:38;2.40;96.30
10316;DHT22;5203;48.976;8.306;2022-12-10T09:43:48;2.50;96.40
10316;DHT22;5203;48.976;8.306;2022-12-10T09:51:57;2.50;94.70
10316;DHT22;5203;48.976;8.306;2022-12-10T09:54:42;2.50;94.60
10316;DHT22;5203;48.976;8.306;2022-12-10T09:57:29;2.60;94.20
10316;DHT22;5203;48.976;8.306;2022-12-10T09:59:56;2.60;93.40
10316;DHT22;5203;48.976;8.306;2022-12-10T10:04:49;2.40;93.90
10316;DHT22;5203;48.976;8.306;2022-12-10T10:09:48;2.60;93.50
10316;DHT22;5203;48.976;8.306;2022-12-10T10:12:14;2.50;93.10
10316;DHT22;5203;48.976;8.306;2022-12-10T10:14:44;2.50;93.80
10316;DHT22;5203;48.976;8.306;2022-12-10T10:17:39;2.50;93.40
10316;DHT22;5203;48.976;8.306;2022-12-10T10:20:05;2.40;93.50
10316;DHT22;5203;48.976;8.306;2022-12-10T10:22:31;2.40;94.20
10316;DHT22;5203;48.976;8.306;2022-12-10T10:24:57;2.40;94.30
10316;DHT22;5203;48.976;8.306;2022-12-10T10:27:28;2.40;94.40
10316;DHT22;5203;48.976;8.306;2022-12-10T10:29:56;2.40;94.30
10316;DHT22;5203;48.976;8.306;2022-12-10T10:32:25;2.40;94.20
10316;DHT22;5203;48.976;8.306;2022-12-10T10:34:54;2.40;93.60
10316;DHT22;5203;48.976;8.306;2022-12-10T10:37:23;2.40;93.90
10316;DHT22;5203;48.976;8.306;2022-12-10T10:39:51;2.30;94.50
10316;DHT22;5203;48.976;8.306;2022-12-10T10:42:40;2.40;95.00
10316;DHT22;5203;48.976;8.306;2022-12-10T10:50:41;2.30;94.30
10316;DHT22;5203;48.976;8.306;2022-12-10T10:56:33;2.40;94.70
10316;DHT22;5203;48.976;8.306;2022-12-10T10:59:05;2.50;94.00
10316;DHT22;5203;48.976;8.306;2022-12-10T11:01:53;2.60;93.40
10316;DHT22;5203;48.976;8.306;2022-12-10T11:04:36;2.50;92.80
10316;DHT22;5203;48.976;8.306;2022-12-10T11:07:05;2.50;92.60
10316;DHT22;5203;48.976;8.306;2022-12-10T11:09:37;2.50;93.50
10316;DHT22;5203;48.976;8.306;2022-12-10T11:12:06;2.60;93.00
10316;DHT22;5203;48.976;8.306;2022-12-10T11:14:45;2.60;92.50
10316;DHT22;5203;48.976;8.306;2022-12-10T11:19:57;2.60;92.60
10316;DHT22;5203;48.976;8.306;2022-12-10T11:22:29;2.60;92.60
10316;DHT22;5203;48.976;8.306;2022-12-10T11:24:56;2.70;91.70
10316;DHT22;5203;48.976;8.306;2022-12-10T11:38:50;2.90;90.50
10316;DHT22;5203;48.976;8.306;2022-12-10T11:51:53;3.30;89.20
10316;DHT22;5203;48.976;8.306;2022-12-10T11:54:50;3.30;90.30
10316;DHT22;5203;48.976;8.306;2022-12-10T12:00:25;3.50;88.70
10316;DHT22;5203;48.976;8.306;2022-12-10T12:03:25;3.40;88.60
10316;DHT22;5203;48.976;8.306;2022-12-10T12:14:12;3.40;88.00
10316;DHT22;5203;48.976;8.306;2022-12-10T12:19:22;3.30;88.40
10316;DHT22;5203;48.976;8.306;2022-12-10T12:21:50;3.30;88.10
10316;DHT22;5203;48.976;8.306;2022-12-10T12:24:21;3.40;88.80
10316;DHT22;5203;48.976;8.306;2022-12-10T12:26:52;3.40;88.60
10316;DHT22;5203;48.976;8.306;2022-12-10T12:30:00;3.30;89.50
10316;DHT22;5203;48.976;8.306;2022-12-10T12:36:03;3.40;86.80
10316;DHT22;5203;48.976;8.306;2022-12-10T12:38:44;3.50;87.00
10316;DHT22;5203;48.976;8.306;2022-12-10T12:41:46;3.50;85.70
10316;DHT22;5203;48.976;8.306;2022-12-10T12:46:50;3.30;86.80
10316;DHT22;5203;48.976;8.306;2022-12-10T12:52:10;3.40;87.60
10316;DHT22;5203;48.976;8.306;2022-12-10T12:54:40;3.40;86.80
10316;DHT22;5203;48.976;8.306;2022-12-10T12:57:46;3.40;87.00
10316;DHT22;5203;48.976;8.306;2022-12-10T13:00:19;3.30;86.80
10316;DHT22;5203;48.976;8.306;2022-12-10T13:03:00;3.30;87.20
10316;DHT22;5203;48.976;8.306;2022-12-10T13:05:32;3.20;88.20
10316;DHT22;5203;48.976;8.306;2022-12-10T13:11:17;3.20;89.50
10316;DHT22;5203;48.976;8.306;2022-12-10T13:22:00;3.00;88.20
10316;DHT22;5203;48.976;8.306;2022-12-10T13:29:52;3.00;87.70
10316;DHT22;5203;48.976;8.306;2022-12-10T13:37:35;3.10;87.80
10316;DHT22;5203;48.976;8.306;2022-12-10T13:42:29;3.00;88.30
10316;DHT22;5203;48.976;8.306;2022-12-10T13:50:52;3.10;86.20
10316;DHT22;5203;48.976;8.306;2022-12-10T13:53:29;3.20;85.50
10316;DHT22;5203;48.976;8.306;2022-12-10T13:58:50;3.10;86.30
10316;DHT22;5203;48.976;8.306;2022-12-10T14:01:46;3.10;87.00
10316;DHT22;5203;48.976;8.306;2022-12-10T14:06:42;3.20;85.80
10316;DHT22;5203;48.976;8.306;2022-12-10T14:09:24;3.20;84.50
10316;DHT22;5203;48.976;8.306;2022-12-10T14:14:39;3.20;84.20
10316;DHT22;5203;48.976;8.306;2022-12-10T14:17:30;3.30;84.60
10316;DHT22;5203;48.976;8.306;2022-12-10T14:19:55;3.30;85.00
10316;DHT22;5203;48.976;8.306;2022-12-10T14:22:34;3.40;85.30
10316;DHT22;5203;48.976;8.306;2022-12-10T14:25:02;3.40;82.20
10316;DHT22;5203;48.976;8.306;2022-12-10T14:27:30;3.50;82.70
10316;DHT22;5203;48.976;8.306;2022-12-10T14:30:04;3.50;82.00
10316;DHT22;5203;48.976;8.306;2022-12-10T14:32:35;3.50;82.30
10316;DHT22;5203;48.976;8.306;2022-12-10T14:35:04;3.50;82.60
10316;DHT22;5203;48.976;8.306;2022-12-10T14:37:33;3.40;82.40
10316;DHT22;5203;48.976;8.306;2022-12-10T14:40:01;3.40;82.90
10316;DHT22;5203;48.976;8.306;2022-12-10T14:42:29;3.40;84.00
10316;DHT22;5203;48.976;8.306;2022-12-10T14:44:58;3.40;83.90
10316;DHT22;5203;48.976;8.306;2022-12-10T14:47:24;3.40;83.80
10316;DHT22;5203;48.976;8.306;2022-12-10T14:49:53;3.50;84.40
10316;DHT22;5203;48.976;8.306;2022-12-10T14:52:24;3.50;84.60
10316;DHT22;5203;48.976;8.306;2022-12-10T14:54:51;3.50;84.20
10316;DHT22;5203;48.976;8.306;2022-12-10T14:57:22;3.50;84.80
10316;DHT22;5203;48.976;8.306;2022-12-10T15:00:03;3.60;85.10
10316;DHT22;5203;48.976;8.306;2022-12-10T15:02:33;3.50;84.70
10316;DHT22;5203;48.976;8.306;2022-12-10T15:05:00;3.50;84.20
10316;DHT22;5203;48.976;8.306;2022-12-10T15:07:31;3.40;83.60
10316;DHT22;5203;48.976;8.306;2022-12-10T15:10:01;3.50;83.30
10316;DHT22;5203;48.976;8.306;2022-12-10T15:15:04;3.50;84.70
10316;DHT22;5203;48.976;8.306;2022-12-10T15:17:38;3.50;84.60
10316;DHT22;5203;48.976;8.306;2022-12-10T15:20:17;3.50;85.40
10316;DHT22;5203;48.976;8.306;2022-12-10T15:22:43;3.50;85.80
10316;DHT22;5203;48.976;8.306;2022-12-10T15:25:41;3.70;85.40
10316;DHT22;5203;48.976;8.306;2022-12-10T15:28:29;3.70;85.10
10316;DHT22;5203;48.976;8.306;2022-12-10T15:34:01;3.50;84.10
10316;DHT22;5203;48.976;8.306;2022-12-10T15:36:41;3.50;84.90
10316;DHT22;5203;48.976;8.306;2022-12-10T15:49:29;3.50;84.20
10316;DHT22;5203;48.976;8.306;2022-12-10T15:51:56;3.50;85.40
10316;DHT22;5203;48.976;8.306;2022-12-10T15:54:37;3.60;85.50
10316;DHT22;5203;48.976;8.306;2022-12-10T15:59:47;3.40;85.60
10316;DHT22;5203;48.976;8.306;2022-12-10T16:05:27;3.30;86.80
10316;DHT22;5203;48.976;8.306;2022-12-10T16:07:55;3.40;86.50
10316;DHT22;5203;48.976;8.306;2022-12-10T16:10:24;3.30;85.20
10316;DHT22;5203;48.976;8.306;2022-12-10T16:12:59;3.30;85.40
10316;DHT22;5203;48.976;8.306;2022-12-10T16:15:29;3.30;85.90
10316;DHT22;5203;48.976;8.306;2022-12-10T16:17:56;3.30;86.60
10316;DHT22;5203;48.976;8.306;2022-12-10T16:20:27;3.20;87.20
10316;DHT22;5203;48.976;8.306;2022-12-10T16:22:54;3.30;85.90
10316;DHT22;5203;48.976;8.306;2022-12-10T16:25:21;3.30;86.40
10316;DHT22;5203;48.976;8.306;2022-12-10T16:27:47;3.30;87.90
10316;DHT22;5203;48.976;8.306;2022-12-10T16:30:24;3.30;89.30
10316;DHT22;5203;48.976;8.306;2022-12-10T16:32:51;3.20;89.50
10316;DHT22;5203;48.976;8.306;2022-12-10T16:35:17;3.30;90.40
10316;DHT22;5203;48.976;8.306;2022-12-10T16:37:45;3.30;88.60
10316;DHT22;5203;48.976;8.306;2022-12-10T16:40:12;3.30;88.80
10316;DHT22;5203;48.976;8.306;2022-12-10T16:42:39;3.30;90.30
10316;DHT22;5203;48.976;8.306;2022-12-10T16:45:12;3.30;89.10
10316;DHT22;5203;48.976;8.306;2022-12-10T16:47:39;3.40;89.80
10316;DHT22;5203;48.976;8.306;2022-12-10T16:50:05;3.40;88.80
10316;DHT22;5203;48.976;8.306;2022-12-10T16:52:31;3.40;88.10
10316;DHT22;5203;48.976;8.306;2022-12-10T16:54:56;3.40;87.60
10316;DHT22;5203;48.976;8.306;2022-12-10T16:57:22;3.30;88.10
10316;DHT22;5203;48.976;8.306;2022-12-10T16:59:48;3.40;87.10
10316;DHT22;5203;48.976;8.306;2022-12-10T17:02:17;3.30;87.60
10316;DHT22;5203;48.976;8.306;2022-12-10T17:04:44;3.20;86.70
10316;DHT22;5203;48.976;8.306;2022-12-10T17:07:10;3.20;87.90
10316;DHT22;5203;48.976;8.306;2022-12-10T17:09:36;3.20;87.80
10316;DHT22;5203;48.976;8.306;2022-12-10T17:12:02;3.10;88.80
10316;DHT22;5203;48.976;8.306;2022-12-10T17:14:31;3.20;89.80
10316;DHT22;5203;48.976;8.306;2022-12-10T17:16:59;3.20;86.70
10316;DHT22;5203;48.976;8.306;2022-12-10T17:19:32;3.10;88.00
10316;DHT22;5203;48.976;8.306;2022-12-10T17:21:59;3.20;88.90
10316;DHT22;5203;48.976;8.306;2022-12-10T17:24:24;3.20;89.40
10316;DHT22;5203;48.976;8.306;2022-12-10T17:26:52;3.10;90.70
10316;DHT22;5203;48.976;8.306;2022-12-10T17:29:29;3.00;91.80
10316;DHT22;5203;48.976;8.306;2022-12-10T17:31:55;3.00;91.60
10316;DHT22;5203;48.976;8.306;2022-12-10T17:34:20;3.00;91.30
10316;DHT22;5203;48.976;8.306;2022-12-10T17:36:49;3.10;91.40
10316;DHT22;5203;48.976;8.306;2022-12-10T17:39:17;3.20;90.10
10316;DHT22;5203;48.976;8.306;2022-12-10T17:41:44;3.20;90.10
10316;DHT22;5203;48.976;8.306;2022-12-10T17:44:10;3.20;89.80
10316;DHT22;5203;48.976;8.306;2022-12-10T17:46:37;3.20;90.90
10316;DHT22;5203;48.976;8.306;2022-12-10T17:49:03;3.20;91.00
10316;DHT22;5203;48.976;8.306;2022-12-10T17:51:29;3.10;91.80
10316;DHT22;5203;48.976;8.306;2022-12-10T17:53:55;3.10;92.30
10316;DHT22;5203;48.976;8.306;2022-12-10T17:56:23;3.10;92.10
10316;DHT22;5203;48.976;8.306;2022-12-10T17:58:50;2.90;92.00
10316;DHT22;5203;48.976;8.306;2022-12-10T18:01:18;2.90;92.70
10316;DHT22;5203;48.976;8.306;2022-12-10T18:03:44;3.00;93.10
10316;DHT22;5203;48.976;8.306;2022-12-10T18:06:17;3.10;93.30
10316;DHT22;5203;48.976;8.306;2022-12-10T18:08:44;3.10;92.90
10316;DHT22;5203;48.976;8.306;2022-12-10T18:11:14;3.20;92.30
10316;DHT22;5203;48.976;8.306;2022-12-10T18:13:40;3.10;92.30
10316;DHT22;5203;48.976;8.306;2022-12-10T18:16:17;3.10;92.00
10316;DHT22;5203;48.976;8.306;2022-12-10T18:18:43;3.00;92.30
10316;DHT22;5203;48.976;8.306;2022-12-10T18:21:09;2.90;92.30
10316;DHT22;5203;48.976;8.306;2022-12-10T18:23:38;2.90;92.90
10316;DHT22;5203;48.976;8.306;2022-12-10T18:26:11;2.90;92.90
10316;DHT22;5203;48.976;8.306;2022-12-10T18:31:08;3.00;92.70
10316;DHT22;5203;48.976;8.306;2022-12-10T18:33:40;2.90;92.50
10316;DHT22;5203;48.976;8.306;2022-12-10T18:36:08;2.90;93.10
10316;DHT22;5203;48.976;8.306;2022-12-10T18:38:34;2.70;93.50
10316;DHT22;5203;48.976;8.306;2022-12-10T18:41:00;2.70;94.00
10316;DHT22;5203;48.976;8.306;2022-12-10T18:43:25;2.70;94.20
10316;DHT22;5203;48.976;8.306;2022-12-10T18:45:51;2.70;94.00